Time;durP1;ratioP1;P1;durP2;ratioP2;P2;SDS_P1;SDS_P2;PMS_P1;PMS_P2;Temp;Humidity;BMP_temperature;BMP_pressure;BME280_temperature;BME280_humidity;BME280_pressure;Samples;Min_cycle;Max_cycle;Signal;HPM_P1;HPM_P2
2023/08/16 00:00:14;;;;;;;;;;;24.30;67.50;;;;;;5031744;28;19913;-54
2023/08/16 00:02:40;;;;;;;;;;;24.40;67.70;;;;;;5045208;28;19952;-54
2023/08/16 00:05:06;;;;;;;;;;;24.40;67.30;;;;;;5034912;28;20372;-55
2023/08/16 00:07:34;;;;;;;;;;;24.40;67.40;;;;;;5048750;28;20388;-55
2023/08/16 00:09:59;;;;;;;;;;;24.40;68.40;;;;;;5041399;28;20442;-55
2023/08/16 00:12:25;;;;;;;;;;;24.40;67.50;;;;;;5034564;28;19992;-54
2023/08/16 00:14:50;;;;;;;;;;;24.40;67.50;;;;;;5038454;28;19914;-54
2023/08/16 00:17:16;;;;;;;;;;;24.30;67.30;;;;;;5038439;28;19913;-55
2023/08/16 00:19:42;;;;;;;;;;;24.30;67.30;;;;;;5048664;28;19913;-55
2023/08/16 00:22:08;;;;;;;;;;;24.30;67.20;;;;;;5040147;28;20324;-54
2023/08/16 00:24:33;;;;;;;;;;;24.40;68.10;;;;;;5028011;28;19917;-54
2023/08/16 00:26:59;;;;;;;;;;;24.30;66.90;;;;;;5030496;28;20000;-54
2023/08/16 00:29:24;;;;;;;;;;;24.30;67.10;;;;;;5037624;28;19921;-55
2023/08/16 00:31:49;;;;;;;;;;;24.30;67.10;;;;;;5052460;28;19917;-55
2023/08/16 00:34:15;;;;;;;;;;;24.30;67.20;;;;;;5038285;28;19909;-55
2023/08/16 00:36:41;;;;;;;;;;;24.30;67.40;;;;;;5047508;28;20288;-54
2023/08/16 00:39:06;;;;;;;;;;;24.30;67.20;;;;;;5032863;28;19924;-55
2023/08/16 00:41:32;;;;;;;;;;;24.40;67.20;;;;;;5034277;28;19916;-54
2023/08/16 00:43:57;;;;;;;;;;;24.40;67.10;;;;;;5031700;28;20385;-54
2023/08/16 00:46:23;;;;;;;;;;;24.30;67.10;;;;;;5016277;28;20324;-54
2023/08/16 00:48:48;;;;;;;;;;;24.30;67.00;;;;;;5043315;28;20281;-55
2023/08/16 00:51:14;;;;;;;;;;;24.30;67.20;;;;;;5030200;28;19941;-55
2023/08/16 00:53:40;;;;;;;;;;;24.30;67.00;;;;;;5032614;28;19921;-56
2023/08/16 00:56:05;;;;;;;;;;;24.30;66.90;;;;;;5031622;28;19913;-54
2023/08/16 00:58:31;;;;;;;;;;;24.40;67.70;;;;;;5017377;28;20456;-55
2023/08/16 01:00:56;;;;;;;;;;;24.40;66.70;;;;;;5043070;28;19952;-55
2023/08/16 01:03:21;;;;;;;;;;;24.40;66.80;;;;;;5038651;28;19913;-54
2023/08/16 01:05:47;;;;;;;;;;;24.50;67.00;;;;;;5030296;28;19921;-54
2023/08/16 01:08:12;;;;;;;;;;;24.50;66.70;;;;;;5032693;28;20427;-54
2023/08/16 01:10:42;;;;;;;;;;;24.40;67.40;;;;;;5032155;28;20324;-55
2023/08/16 01:13:08;;;;;;;;;;;24.50;66.80;;;;;;5030850;28;20016;-54
2023/08/16 01:15:36;;;;;;;;;;;24.40;67.00;;;;;;5030108;28;19939;-55
2023/08/16 01:18:01;;;;;;;;;;;24.40;67.60;;;;;;5038638;28;19917;-56
2023/08/16 01:20:27;;;;;;;;;;;24.30;66.90;;;;;;5030325;28;19971;-55
2023/08/16 01:23:06;;;;;;;;;;;24.30;67.30;;;;;;5012388;28;19920;-54
2023/08/16 01:25:47;;;;;;;;;;;24.30;67.10;;;;;;5026344;28;20023;-54
2023/08/16 01:28:12;;;;;;;;;;;24.30;67.10;;;;;;5031649;28;19913;-54
2023/08/16 01:30:38;;;;;;;;;;;24.30;67.50;;;;;;5028704;28;20366;-55
2023/08/16 01:33:05;;;;;;;;;;;24.40;67.10;;;;;;5032557;28;20299;-56
2023/08/16 01:35:30;;;;;;;;;;;24.50;67.70;;;;;;5031572;28;20004;-55
2023/08/16 01:37:55;;;;;;;;;;;24.40;67.00;;;;;;5016540;28;20000;-55
2023/08/16 01:40:21;;;;;;;;;;;24.40;67.20;;;;;;5036305;28;19917;-54
2023/08/16 01:42:47;;;;;;;;;;;24.50;67.30;;;;;;5031473;28;19924;-56
2023/08/16 01:45:13;;;;;;;;;;;24.50;67.40;;;;;;5026247;28;20000;-55
2023/08/16 01:47:38;;;;;;;;;;;24.50;67.20;;;;;;5039778;28;20012;-55
2023/08/16 01:50:04;;;;;;;;;;;24.40;67.40;;;;;;5014740;28;20540;-56
2023/08/16 01:52:29;;;;;;;;;;;24.40;67.20;;;;;;5032164;28;20366;-54
2023/08/16 01:54:55;;;;;;;;;;;24.30;68.10;;;;;;5029998;28;19913;-55
2023/08/16 01:57:20;;;;;;;;;;;24.30;67.70;;;;;;5050472;28;20333;-54
2023/08/16 01:59:46;;;;;;;;;;;24.30;68.10;;;;;;5044103;28;19976;-55
2023/08/16 02:02:11;;;;;;;;;;;24.30;67.80;;;;;;5038073;28;19913;-54
2023/08/16 02:04:37;;;;;;;;;;;24.30;68.10;;;;;;5027133;28;19935;-55
2023/08/16 02:07:02;;;;;;;;;;;24.30;68.10;;;;;;5044381;28;19948;-54
2023/08/16 02:09:28;;;;;;;;;;;24.20;68.00;;;;;;5037907;28;19959;-54
2023/08/16 02:11:53;;;;;;;;;;;24.20;68.10;;;;;;5049817;28;20035;-54
2023/08/16 02:14:18;;;;;;;;;;;24.20;68.20;;;;;;5030880;28;19921;-54
2023/08/16 02:16:44;;;;;;;;;;;24.20;68.60;;;;;;5035047;28;20361;-54
2023/08/16 02:19:09;;;;;;;;;;;24.20;68.30;;;;;;5032453;28;20435;-55
2023/08/16 02:21:35;;;;;;;;;;;24.20;68.60;;;;;;5032210;28;20311;-55
2023/08/16 02:24:00;;;;;;;;;;;24.10;68.70;;;;;;5047029;28;19913;-56
2023/08/16 02:26:26;;;;;;;;;;;24.10;68.80;;;;;;5034994;28;19917;-56
2023/08/16 02:28:51;;;;;;;;;;;24.00;68.90;;;;;;5034224;28;19916;-56
2023/08/16 02:31:17;;;;;;;;;;;24.00;69.40;;;;;;5032867;28;20377;-55
2023/08/16 02:33:42;;;;;;;;;;;24.00;69.40;;;;;;5031565;28;20000;-55
2023/08/16 02:36:08;;;;;;;;;;;24.00;69.20;;;;;;5050175;28;19917;-54
2023/08/16 02:38:33;;;;;;;;;;;24.00;69.30;;;;;;5036931;28;20341;-54
2023/08/16 02:40:59;;;;;;;;;;;23.90;69.50;;;;;;5040099;28;19917;-54
2023/08/16 02:43:24;;;;;;;;;;;23.90;69.40;;;;;;5038796;28;19960;-55
2023/08/16 02:45:50;;;;;;;;;;;24.00;69.30;;;;;;5045620;28;19917;-54
2023/08/16 02:48:15;;;;;;;;;;;24.00;69.30;;;;;;5032002;28;19924;-55
2023/08/16 02:50:40;;;;;;;;;;;24.00;69.60;;;;;;5030954;28;19924;-54
2023/08/16 02:53:06;;;;;;;;;;;24.00;69.70;;;;;;5042613;28;20168;-54
2023/08/16 02:55:31;;;;;;;;;;;24.00;69.30;;;;;;5040113;28;19913;-55
2023/08/16 02:57:57;;;;;;;;;;;24.00;69.40;;;;;;5044311;28;19917;-54
2023/08/16 03:00:22;;;;;;;;;;;24.00;69.60;;;;;;5048387;28;19912;-54
2023/08/16 03:02:48;;;;;;;;;;;24.00;69.30;;;;;;5030021;28;19987;-55
2023/08/16 03:05:13;;;;;;;;;;;24.00;69.50;;;;;;5035340;28;20013;-54
2023/08/16 03:07:39;;;;;;;;;;;23.90;69.70;;;;;;5052088;28;19927;-55
2023/08/16 03:10:05;;;;;;;;;;;23.90;69.70;;;;;;5049753;28;19952;-55
2023/08/16 03:12:30;;;;;;;;;;;24.00;69.80;;;;;;5031506;28;19913;-54
2023/08/16 03:14:56;;;;;;;;;;;24.00;69.80;;;;;;5030252;28;19932;-54
2023/08/16 03:17:21;;;;;;;;;;;24.00;69.60;;;;;;5034125;28;20019;-54
2023/08/16 03:19:46;;;;;;;;;;;24.00;69.40;;;;;;5044838;28;19914;-54
2023/08/16 03:22:12;;;;;;;;;;;24.00;69.30;;;;;;5046729;28;19920;-55
2023/08/16 03:24:37;;;;;;;;;;;24.00;69.60;;;;;;5047338;28;19917;-55
2023/08/16 03:27:03;;;;;;;;;;;24.00;69.60;;;;;;5035824;28;20008;-54
2023/08/16 03:29:28;;;;;;;;;;;24.10;69.70;;;;;;5044330;28;19915;-55
2023/08/16 03:31:54;;;;;;;;;;;24.10;69.50;;;;;;5037178;28;19917;-55
2023/08/16 03:34:19;;;;;;;;;;;24.10;69.40;;;;;;5044919;28;19991;-55
2023/08/16 03:36:45;;;;;;;;;;;24.10;69.40;;;;;;5040571;28;19913;-55
2023/08/16 03:39:11;;;;;;;;;;;24.10;69.30;;;;;;5036340;28;19913;-55
2023/08/16 03:41:37;;;;;;;;;;;24.10;69.40;;;;;;5032396;28;19920;-55
2023/08/16 03:44:03;;;;;;;;;;;24.10;69.30;;;;;;5036055;28;19970;-54
2023/08/16 03:46:28;;;;;;;;;;;24.10;69.50;;;;;;5035126;28;19980;-55
2023/08/16 03:48:54;;;;;;;;;;;24.10;69.80;;;;;;5033927;28;19928;-55
2023/08/16 03:51:19;;;;;;;;;;;24.00;69.60;;;;;;5038051;28;20344;-55
2023/08/16 03:53:45;;;;;;;;;;;24.00;69.60;;;;;;5037467;28;19921;-55
2023/08/16 03:56:10;;;;;;;;;;;24.10;69.80;;;;;;5045987;28;20349;-54
2023/08/16 03:58:35;;;;;;;;;;;24.00;69.60;;;;;;5031601;28;19948;-55
2023/08/16 04:01:01;;;;;;;;;;;24.00;69.70;;;;;;5043803;28;19913;-55
2023/08/16 04:03:26;;;;;;;;;;;24.00;69.90;;;;;;5038832;28;19917;-54
2023/08/16 04:05:52;;;;;;;;;;;24.10;69.80;;;;;;5037110;28;19956;-55
2023/08/16 04:08:18;;;;;;;;;;;24.00;69.60;;;;;;5050512;28;20273;-54
2023/08/16 04:10:43;;;;;;;;;;;24.00;69.70;;;;;;5044444;28;20338;-54
2023/08/16 04:13:09;;;;;;;;;;;24.10;69.80;;;;;;5034415;28;19925;-54
2023/08/16 04:15:34;;;;;;;;;;;24.00;69.80;;;;;;5041886;28;19917;-55
2023/08/16 04:18:00;;;;;;;;;;;24.10;69.90;;;;;;5038146;28;19916;-55
2023/08/16 04:20:25;;;;;;;;;;;24.00;69.90;;;;;;5040609;28;19913;-54
2023/08/16 04:22:50;;;;;;;;;;;24.00;69.70;;;;;;5039707;28;19957;-54
2023/08/16 04:25:16;;;;;;;;;;;24.00;69.80;;;;;;5031875;28;19924;-55
2023/08/16 04:27:42;;;;;;;;;;;24.00;69.70;;;;;;5029670;28;19935;-56
2023/08/16 04:30:08;;;;;;;;;;;24.10;69.90;;;;;;5037577;28;20008;-55
2023/08/16 04:32:34;;;;;;;;;;;24.00;69.80;;;;;;5034204;28;19968;-55
2023/08/16 04:34:59;;;;;;;;;;;24.00;69.90;;;;;;5042903;28;19917;-54
2023/08/16 04:37:24;;;;;;;;;;;24.00;69.90;;;;;;5031020;28;19917;-56
2023/08/16 04:39:50;;;;;;;;;;;24.00;69.90;;;;;;5030456;28;19921;-55
2023/08/16 04:42:15;;;;;;;;;;;23.90;70.00;;;;;;5031625;28;19913;-54
2023/08/16 04:44:41;;;;;;;;;;;24.00;70.00;;;;;;5022286;28;19921;-55
2023/08/16 04:47:06;;;;;;;;;;;24.00;70.10;;;;;;5036507;28;20452;-54
2023/08/16 04:49:32;;;;;;;;;;;23.90;70.10;;;;;;5041779;28;19921;-54
2023/08/16 04:51:58;;;;;;;;;;;23.90;70.30;;;;;;5039875;28;19913;-56
2023/08/16 04:54:23;;;;;;;;;;;23.90;70.20;;;;;;5033554;28;19913;-55
2023/08/16 04:56:49;;;;;;;;;;;23.90;70.30;;;;;;5031803;28;19956;-56
2023/08/16 04:59:18;;;;;;;;;;;24.00;70.40;;;;;;5037406;28;19963;-56
2023/08/16 05:01:44;;;;;;;;;;;24.00;70.40;;;;;;5038036;28;19913;-55
2023/08/16 05:04:09;;;;;;;;;;;23.90;70.30;;;;;;5032181;28;19917;-55
2023/08/16 05:06:35;;;;;;;;;;;24.00;70.40;;;;;;5031504;28;19924;-56
2023/08/16 05:09:00;;;;;;;;;;;23.90;70.20;;;;;;5035808;28;20075;-55
2023/08/16 05:11:26;;;;;;;;;;;23.90;70.50;;;;;;5019122;28;19975;-56
2023/08/16 05:13:51;;;;;;;;;;;23.90;70.50;;;;;;5031149;28;19917;-55
2023/08/16 05:16:17;;;;;;;;;;;23.80;70.40;;;;;;5040845;28;19921;-55
2023/08/16 05:18:42;;;;;;;;;;;23.80;70.60;;;;;;5032376;28;20004;-55
2023/08/16 05:21:07;;;;;;;;;;;23.80;70.80;;;;;;5033427;28;19913;-55
2023/08/16 05:23:36;;;;;;;;;;;23.80;70.60;;;;;;5042140;28;20273;-56
2023/08/16 05:26:01;;;;;;;;;;;23.80;70.60;;;;;;5031278;28;19924;-55
2023/08/16 05:28:26;;;;;;;;;;;23.90;70.50;;;;;;5038861;28;19916;-56
2023/08/16 05:30:52;;;;;;;;;;;23.90;70.50;;;;;;5025439;28;19913;-56
2023/08/16 05:33:17;;;;;;;;;;;23.90;70.60;;;;;;5047212;28;19919;-56
2023/08/16 05:35:43;;;;;;;;;;;23.90;70.60;;;;;;5041558;28;19921;-56
2023/08/16 05:38:08;;;;;;;;;;;23.90;70.50;;;;;;5043859;28;20277;-56
2023/08/16 05:40:34;;;;;;;;;;;23.90;70.50;;;;;;5030363;28;20305;-55
2023/08/16 05:42:59;;;;;;;;;;;24.00;70.60;;;;;;5029268;28;19975;-55
2023/08/16 05:45:29;;;;;;;;;;;23.90;70.50;;;;;;5048945;28;19924;-56
2023/08/16 05:47:55;;;;;;;;;;;24.00;71.40;;;;;;5039357;28;19920;-56
2023/08/16 05:50:21;;;;;;;;;;;23.90;70.50;;;;;;5047335;28;20308;-55
2023/08/16 05:52:46;;;;;;;;;;;23.90;70.50;;;;;;5040155;28;19914;-57
2023/08/16 05:55:12;;;;;;;;;;;24.00;70.60;;;;;;5021794;28;20341;-56
2023/08/16 05:57:37;;;;;;;;;;;23.90;70.70;;;;;;5034900;28;19917;-55
2023/08/16 06:00:03;;;;;;;;;;;23.90;70.70;;;;;;5032655;28;20417;-55
2023/08/16 06:02:28;;;;;;;;;;;23.90;70.80;;;;;;5016298;28;20000;-56
2023/08/16 06:04:54;;;;;;;;;;;23.90;70.70;;;;;;5030207;28;19924;-56
2023/08/16 06:07:20;;;;;;;;;;;23.80;70.90;;;;;;5029855;28;19928;-55
2023/08/16 06:09:45;;;;;;;;;;;23.80;71.10;;;;;;5033168;28;19913;-56
2023/08/16 06:12:11;;;;;;;;;;;23.80;70.80;;;;;;5038817;28;19913;-57
2023/08/16 06:14:37;;;;;;;;;;;23.80;71.20;;;;;;5032232;28;19996;-56
2023/08/16 06:17:02;;;;;;;;;;;23.80;71.10;;;;;;5028113;28;19921;-56
2023/08/16 06:19:28;;;;;;;;;;;23.80;71.00;;;;;;5026884;28;19913;-55
2023/08/16 06:21:53;;;;;;;;;;;23.80;70.90;;;;;;5030303;28;19913;-56
2023/08/16 06:24:19;;;;;;;;;;;23.80;71.00;;;;;;5030409;28;20587;-55
2023/08/16 06:26:45;;;;;;;;;;;23.80;70.90;;;;;;5036997;28;20310;-55
2023/08/16 06:29:10;;;;;;;;;;;23.80;70.90;;;;;;5032161;28;19916;-56
2023/08/16 06:31:36;;;;;;;;;;;23.80;71.10;;;;;;5034068;28;19913;-55
2023/08/16 06:34:01;;;;;;;;;;;23.80;70.90;;;;;;5028824;28;19913;-56
2023/08/16 06:36:27;;;;;;;;;;;23.80;70.90;;;;;;5014162;28;19967;-56
2023/08/16 06:38:53;;;;;;;;;;;23.80;70.70;;;;;;5028145;28;19920;-55
2023/08/16 06:41:19;;;;;;;;;;;23.80;70.60;;;;;;5031662;28;19920;-55
2023/08/16 06:43:44;;;;;;;;;;;23.80;70.70;;;;;;5032464;28;19924;-56
2023/08/16 06:46:10;;;;;;;;;;;23.80;70.50;;;;;;5037370;28;20377;-56
2023/08/16 06:48:35;;;;;;;;;;;23.80;70.60;;;;;;5030757;28;19932;-55
2023/08/16 06:51:01;;;;;;;;;;;23.80;70.70;;;;;;5030303;28;19913;-56
2023/08/16 06:53:27;;;;;;;;;;;23.80;70.40;;;;;;5031820;28;19924;-57
2023/08/16 06:55:53;;;;;;;;;;;23.70;70.60;;;;;;5033076;28;19920;-55
2023/08/16 06:58:18;;;;;;;;;;;23.70;70.60;;;;;;5031576;28;20373;-55
2023/08/16 07:00:45;;;;;;;;;;;23.80;70.50;;;;;;5030158;28;19933;-55
2023/08/16 07:03:10;;;;;;;;;;;23.90;70.50;;;;;;5032009;28;19909;-56
2023/08/16 07:05:36;;;;;;;;;;;23.80;70.40;;;;;;5031710;28;19917;-55
2023/08/16 07:08:01;;;;;;;;;;;23.90;70.50;;;;;;5039228;28;19917;-55
2023/08/16 07:10:27;;;;;;;;;;;23.90;70.30;;;;;;5035453;28;20000;-55
2023/08/16 07:12:52;;;;;;;;;;;23.90;70.10;;;;;;5031590;28;19929;-55
2023/08/16 07:15:18;;;;;;;;;;;24.00;70.10;;;;;;5030038;28;19921;-55
2023/08/16 07:17:43;;;;;;;;;;;24.00;70.10;;;;;;5034923;28;19917;-56
2023/08/16 07:20:10;;;;;;;;;;;24.00;70.00;;;;;;5031641;28;19913;-56
2023/08/16 07:22:39;;;;;;;;;;;24.00;69.70;;;;;;5031468;28;19920;-54
2023/08/16 07:25:05;;;;;;;;;;;24.00;69.60;;;;;;5031205;28;20365;-56
2023/08/16 07:27:30;;;;;;;;;;;24.00;69.40;;;;;;5030878;28;19913;-56
2023/08/16 07:29:55;;;;;;;;;;;24.00;69.40;;;;;;5030075;28;19910;-56
2023/08/16 07:32:21;;;;;;;;;;;24.00;69.20;;;;;;5029456;28;19988;-56
2023/08/16 07:34:46;;;;;;;;;;;24.00;69.30;;;;;;5032304;28;19913;-56
2023/08/16 07:37:13;;;;;;;;;;;23.90;68.90;;;;;;5030510;28;19913;-55
2023/08/16 07:39:38;;;;;;;;;;;23.80;68.90;;;;;;5028472;28;20056;-56
2023/08/16 07:42:06;;;;;;;;;;;23.90;69.00;;;;;;5015533;28;20011;-56
2023/08/16 07:44:32;;;;;;;;;;;23.90;69.00;;;;;;5030221;28;20344;-56
2023/08/16 07:46:57;;;;;;;;;;;23.90;69.20;;;;;;5018169;28;19921;-56
2023/08/16 07:49:23;;;;;;;;;;;23.90;68.40;;;;;;5021885;28;19921;-55
2023/08/16 07:51:48;;;;;;;;;;;23.80;68.40;;;;;;5034882;28;19920;-56
2023/08/16 07:54:14;;;;;;;;;;;23.90;68.50;;;;;;5043464;28;20475;-54
2023/08/16 07:56:39;;;;;;;;;;;23.90;68.30;;;;;;5020279;28;20384;-56
2023/08/16 07:59:05;;;;;;;;;;;23.90;68.30;;;;;;5025712;28;20381;-55
2023/08/16 08:01:30;;;;;;;;;;;24.00;68.20;;;;;;5025963;28;20369;-56
2023/08/16 08:03:56;;;;;;;;;;;23.90;67.70;;;;;;5025832;28;19987;-54
2023/08/16 08:06:21;;;;;;;;;;;23.90;67.80;;;;;;5028842;28;19917;-55
2023/08/16 08:08:47;;;;;;;;;;;23.90;67.40;;;;;;5031745;28;19913;-55
2023/08/16 08:11:12;;;;;;;;;;;23.90;67.20;;;;;;5029364;28;19993;-55
2023/08/16 08:13:37;;;;;;;;;;;23.90;67.40;;;;;;5027576;28;19925;-55
2023/08/16 08:16:03;;;;;;;;;;;23.90;67.40;;;;;;5028262;28;19919;-54
2023/08/16 08:18:29;;;;;;;;;;;23.90;67.30;;;;;;5029615;28;20409;-55
2023/08/16 08:20:55;;;;;;;;;;;24.00;67.30;;;;;;5032018;28;20313;-56
2023/08/16 08:23:21;;;;;;;;;;;24.00;67.40;;;;;;5032668;28;19913;-55
2023/08/16 08:25:47;;;;;;;;;;;23.90;67.10;;;;;;5033510;28;19924;-55
2023/08/16 08:28:13;;;;;;;;;;;23.80;67.10;;;;;;5024239;28;19921;-56
2023/08/16 08:30:39;;;;;;;;;;;23.80;67.30;;;;;;5028461;28;20352;-55
2023/08/16 08:33:05;;;;;;;;;;;23.90;67.50;;;;;;5033981;28;19916;-55
2023/08/16 08:35:33;;;;;;;;;;;23.90;67.10;;;;;;5032561;28;19909;-55
2023/08/16 08:37:58;;;;;;;;;;;23.90;66.60;;;;;;5025418;28;19913;-56
2023/08/16 08:40:24;;;;;;;;;;;23.80;66.50;;;;;;5032950;28;19924;-55
2023/08/16 08:42:49;;;;;;;;;;;23.80;66.80;;;;;;5033655;28;20273;-55
2023/08/16 08:45:15;;;;;;;;;;;23.90;66.20;;;;;;5032048;28;19920;-55
2023/08/16 08:47:41;;;;;;;;;;;23.80;66.10;;;;;;5020675;28;19939;-54
2023/08/16 08:50:07;;;;;;;;;;;23.90;66.40;;;;;;5025363;28;19925;-55
2023/08/16 08:52:32;;;;;;;;;;;23.90;66.10;;;;;;5025665;28;19935;-55
2023/08/16 08:54:58;;;;;;;;;;;23.90;66.20;;;;;;5027815;28;20024;-56
2023/08/16 08:57:24;;;;;;;;;;;23.90;66.00;;;;;;5010930;28;20432;-56
2023/08/16 08:59:50;;;;;;;;;;;23.90;66.10;;;;;;5029572;28;20381;-55
2023/08/16 09:02:17;;;;;;;;;;;23.90;65.90;;;;;;5026505;28;19928;-56
2023/08/16 09:04:43;;;;;;;;;;;23.90;66.40;;;;;;5013955;28;20448;-55
2023/08/16 09:07:08;;;;;;;;;;;23.90;66.20;;;;;;5033229;28;20008;-54
2023/08/16 09:09:34;;;;;;;;;;;23.80;65.80;;;;;;5033144;28;20008;-56
2023/08/16 09:11:59;;;;;;;;;;;23.80;65.90;;;;;;5032315;28;19924;-54
2023/08/16 09:14:25;;;;;;;;;;;23.90;66.00;;;;;;5033365;28;19913;-54
2023/08/16 09:16:50;;;;;;;;;;;23.90;65.60;;;;;;5035731;28;19917;-55
2023/08/16 09:19:16;;;;;;;;;;;23.90;65.30;;;;;;5027878;28;19913;-55
2023/08/16 09:21:42;;;;;;;;;;;23.90;65.40;;;;;;5034253;28;20000;-55
2023/08/16 09:24:07;;;;;;;;;;;24.00;65.50;;;;;;5030820;28;19921;-55
2023/08/16 09:26:33;;;;;;;;;;;24.00;64.90;;;;;;5034223;28;20457;-54
2023/08/16 09:28:58;;;;;;;;;;;24.00;64.50;;;;;;5030670;28;20008;-55
2023/08/16 09:31:24;;;;;;;;;;;24.00;65.20;;;;;;5031230;28;19925;-54
2023/08/16 09:33:54;;;;;;;;;;;24.10;64.40;;;;;;5033020;28;20381;-55
2023/08/16 09:36:19;;;;;;;;;;;24.20;64.50;;;;;;5030662;28;20377;-55
2023/08/16 09:38:46;;;;;;;;;;;24.20;64.50;;;;;;5030307;28;19913;-56
2023/08/16 09:41:13;;;;;;;;;;;24.20;63.90;;;;;;5031673;28;19932;-56
2023/08/16 09:43:38;;;;;;;;;;;24.30;64.90;;;;;;5029909;28;19917;-56
2023/08/16 09:46:04;;;;;;;;;;;24.30;63.90;;;;;;5031329;28;19996;-55
2023/08/16 09:48:29;;;;;;;;;;;24.30;63.80;;;;;;5025285;28;19921;-55
2023/08/16 09:50:59;;;;;;;;;;;24.30;64.40;;;;;;5022207;28;20007;-56
2023/08/16 09:53:25;;;;;;;;;;;24.20;64.40;;;;;;5022901;28;19941;-56
2023/08/16 09:55:51;;;;;;;;;;;24.20;64.10;;;;;;5030639;28;20296;-55
2023/08/16 09:58:18;;;;;;;;;;;24.20;63.80;;;;;;5005946;28;19968;-54
2023/08/16 10:00:43;;;;;;;;;;;24.20;64.50;;;;;;5030253;28;19956;-55
2023/08/16 10:03:08;;;;;;;;;;;24.30;64.50;;;;;;5030618;28;20455;-55
2023/08/16 10:05:34;;;;;;;;;;;24.30;64.20;;;;;;5022308;28;19917;-54
2023/08/16 10:08:04;;;;;;;;;;;24.40;63.70;;;;;;5030475;28;19963;-55
2023/08/16 10:10:30;;;;;;;;;;;24.40;63.70;;;;;;5031991;28;19909;-54
2023/08/16 10:12:55;;;;;;;;;;;24.40;64.30;;;;;;5037366;28;19913;-55
2023/08/16 10:15:21;;;;;;;;;;;24.40;64.10;;;;;;5031513;28;19913;-55
2023/08/16 10:17:46;;;;;;;;;;;24.50;63.50;;;;;;5030729;28;19940;-55
2023/08/16 10:20:21;;;;;;;;;;;24.50;62.70;;;;;;5017605;28;19962;-55
2023/08/16 10:22:50;;;;;;;;;;;24.40;63.60;;;;;;5024961;28;20281;-54
2023/08/16 10:25:17;;;;;;;;;;;24.40;63.60;;;;;;5019322;28;19913;-55
2023/08/16 10:27:43;;;;;;;;;;;24.40;62.50;;;;;;5012101;28;19975;-55
2023/08/16 10:30:12;;;;;;;;;;;24.40;62.80;;;;;;5013792;28;19924;-54
2023/08/16 10:32:40;;;;;;;;;;;24.40;63.80;;;;;;5030892;28;19913;-54
2023/08/16 10:35:06;;;;;;;;;;;24.50;63.80;;;;;;5013166;28;20012;-55
2023/08/16 10:37:31;;;;;;;;;;;24.40;63.10;;;;;;5028435;28;19913;-56
2023/08/16 10:39:57;;;;;;;;;;;24.50;63.50;;;;;;5031277;28;20259;-54
2023/08/16 10:42:29;;;;;;;;;;;24.50;62.70;;;;;;5031789;28;19936;-56
2023/08/16 10:44:54;;;;;;;;;;;24.50;63.20;;;;;;5025455;28;19917;-55
2023/08/16 10:47:29;;;;;;;;;;;24.50;63.50;;;;;;5030000;28;19913;-55
2023/08/16 10:49:54;;;;;;;;;;;24.50;63.10;;;;;;5029737;28;19971;-55
2023/08/16 10:52:29;;;;;;;;;;;24.50;63.00;;;;;;5022023;28;19976;-54
2023/08/16 10:54:55;;;;;;;;;;;24.60;63.30;;;;;;5027830;28;19917;-55
2023/08/16 10:57:25;;;;;;;;;;;24.50;63.00;;;;;;5024313;28;20495;-55
2023/08/16 11:00:00;;;;;;;;;;;24.50;63.50;;;;;;5030502;28;19917;-54
2023/08/16 11:02:28;;;;;;;;;;;24.60;63.60;;;;;;5032723;28;19967;-54
2023/08/16 11:04:54;;;;;;;;;;;24.70;63.40;;;;;;5026498;28;19918;-55
2023/08/16 11:07:19;;;;;;;;;;;24.70;63.40;;;;;;5028577;28;19968;-54
2023/08/16 11:09:45;;;;;;;;;;;24.70;63.50;;;;;;5030150;28;19955;-56
2023/08/16 11:12:10;;;;;;;;;;;24.70;63.40;;;;;;5032922;28;19920;-56
2023/08/16 11:14:36;;;;;;;;;;;24.70;62.70;;;;;;5038925;28;19913;-55
2023/08/16 11:17:02;;;;;;;;;;;24.70;62.60;;;;;;5039104;28;20035;-54
2023/08/16 11:19:28;;;;;;;;;;;24.80;62.40;;;;;;5028717;28;19927;-54
2023/08/16 11:22:01;;;;;;;;;;;24.90;62.10;;;;;;5031395;28;20284;-54
2023/08/16 11:24:27;;;;;;;;;;;24.90;62.30;;;;;;5031109;28;19968;-55
2023/08/16 11:26:53;;;;;;;;;;;24.90;62.60;;;;;;5030277;28;19917;-54
2023/08/16 11:29:18;;;;;;;;;;;24.90;62.10;;;;;;5030296;28;19913;-55
2023/08/16 11:31:44;;;;;;;;;;;24.80;61.10;;;;;;5028789;28;20032;-54
2023/08/16 11:34:13;;;;;;;;;;;24.70;61.70;;;;;;5031093;28;19971;-54
2023/08/16 11:36:38;;;;;;;;;;;24.70;62.00;;;;;;5031511;28;19952;-55
2023/08/16 11:39:04;;;;;;;;;;;24.90;60.50;;;;;;5044244;28;20345;-54
2023/08/16 11:41:30;;;;;;;;;;;25.10;60.50;;;;;;5042929;28;19952;-54
2023/08/16 11:43:59;;;;;;;;;;;25.10;61.10;;;;;;5034673;28;20238;-54
2023/08/16 11:46:24;;;;;;;;;;;25.00;61.10;;;;;;5033638;28;19921;-55
2023/08/16 11:48:50;;;;;;;;;;;25.00;61.50;;;;;;5034312;28;20381;-54
2023/08/16 11:51:16;;;;;;;;;;;25.00;61.80;;;;;;5035292;28;19925;-54
2023/08/16 11:53:42;;;;;;;;;;;25.00;61.50;;;;;;5034388;28;20396;-56
2023/08/16 11:56:08;;;;;;;;;;;25.00;61.60;;;;;;5032032;28;19997;-55
2023/08/16 11:58:46;;;;;;;;;;;24.90;61.30;;;;;;5034167;28;19920;-54
2023/08/16 12:01:14;;;;;;;;;;;24.80;61.90;;;;;;5031307;28;20373;-55
2023/08/16 12:03:43;;;;;;;;;;;24.80;61.60;;;;;;5024550;28;19974;-54
2023/08/16 12:06:11;;;;;;;;;;;24.80;61.90;;;;;;5033648;28;19921;-55
2023/08/16 12:08:46;;;;;;;;;;;24.90;61.80;;;;;;5017195;28;19913;-54
2023/08/16 12:11:12;;;;;;;;;;;24.90;62.10;;;;;;5021461;28;20012;-55
2023/08/16 12:13:37;;;;;;;;;;;25.00;60.90;;;;;;5034302;28;19945;-55
2023/08/16 12:16:03;;;;;;;;;;;25.10;61.40;;;;;;5032643;28;19935;-55
2023/08/16 12:18:28;;;;;;;;;;;25.00;61.50;;;;;;5032825;28;19975;-56
2023/08/16 12:20:53;;;;;;;;;;;25.10;61.10;;;;;;5034269;28;19909;-55
2023/08/16 12:23:19;;;;;;;;;;;25.10;61.20;;;;;;5034592;28;19913;-55
2023/08/16 12:25:45;;;;;;;;;;;25.10;61.10;;;;;;5032377;28;20412;-55
2023/08/16 12:28:10;;;;;;;;;;;25.10;60.70;;;;;;5035784;28;19913;-56
2023/08/16 12:30:36;;;;;;;;;;;25.20;60.20;;;;;;5043452;28;20495;-55
2023/08/16 12:33:02;;;;;;;;;;;25.30;60.70;;;;;;5029912;28;19951;-53
2023/08/16 12:35:28;;;;;;;;;;;25.20;59.40;;;;;;5032141;28;19921;-55
2023/08/16 12:37:53;;;;;;;;;;;25.20;59.30;;;;;;5031477;28;20051;-53
2023/08/16 12:40:19;;;;;;;;;;;25.10;59.70;;;;;;5030130;28;19930;-53
2023/08/16 12:42:44;;;;;;;;;;;25.20;59.50;;;;;;5028877;28;19917;-53
2023/08/16 12:45:10;;;;;;;;;;;25.20;59.40;;;;;;5020487;28;19916;-54
2023/08/16 12:47:35;;;;;;;;;;;25.20;59.70;;;;;;5034146;28;19913;-54
2023/08/16 12:50:00;;;;;;;;;;;25.30;59.30;;;;;;5032780;28;19921;-54
2023/08/16 12:52:26;;;;;;;;;;;25.30;59.30;;;;;;5033788;28;19960;-53
2023/08/16 12:54:52;;;;;;;;;;;25.10;59.40;;;;;;5015407;28;19913;-54
2023/08/16 12:57:18;;;;;;;;;;;25.10;60.00;;;;;;5031259;28;19913;-53
2023/08/16 12:59:46;;;;;;;;;;;25.10;60.30;;;;;;5029765;28;19913;-54
2023/08/16 13:02:13;;;;;;;;;;;25.10;60.40;;;;;;5032298;28;19996;-53
2023/08/16 13:04:38;;;;;;;;;;;25.10;59.80;;;;;;5033426;28;19939;-54
2023/08/16 13:07:05;;;;;;;;;;;25.20;60.20;;;;;;5030037;28;19921;-55
2023/08/16 13:09:31;;;;;;;;;;;25.20;60.60;;;;;;5032282;28;19909;-54
2023/08/16 13:11:57;;;;;;;;;;;25.20;60.40;;;;;;5033773;28;19909;-54
2023/08/16 13:14:22;;;;;;;;;;;25.30;59.80;;;;;;5028625;28;19936;-53
2023/08/16 13:16:48;;;;;;;;;;;25.30;59.30;;;;;;5017738;28;19929;-53
2023/08/16 13:19:13;;;;;;;;;;;25.30;59.40;;;;;;5027079;28;19917;-55
2023/08/16 13:21:39;;;;;;;;;;;25.20;59.30;;;;;;5032021;28;20679;-54
2023/08/16 13:24:11;;;;;;;;;;;25.20;59.40;;;;;;5027518;28;19917;-53
2023/08/16 13:26:39;;;;;;;;;;;25.20;59.30;;;;;;5024131;28;20383;-53
2023/08/16 13:29:08;;;;;;;;;;;25.20;59.30;;;;;;5029435;28;19921;-53
2023/08/16 13:31:34;;;;;;;;;;;25.20;59.20;;;;;;5022211;28;19992;-55
2023/08/16 13:33:59;;;;;;;;;;;25.20;59.30;;;;;;5026406;28;20058;-57
2023/08/16 13:36:25;;;;;;;;;;;25.20;59.10;;;;;;5024548;28;19983;-57
2023/08/16 13:38:50;;;;;;;;;;;25.20;59.30;;;;;;5029901;28;20004;-57
2023/08/16 13:41:16;;;;;;;;;;;25.20;59.30;;;;;;5028940;28;19913;-55
2023/08/16 13:43:41;;;;;;;;;;;25.20;59.70;;;;;;5029788;28;19913;-56
2023/08/16 13:46:07;;;;;;;;;;;25.20;59.50;;;;;;5029960;28;19940;-56
2023/08/16 13:48:32;;;;;;;;;;;25.20;59.90;;;;;;5031095;28;19924;-55
2023/08/16 13:50:58;;;;;;;;;;;25.30;60.10;;;;;;5033099;28;19967;-56
2023/08/16 13:53:23;;;;;;;;;;;25.20;59.40;;;;;;5032868;28;20383;-56
2023/08/16 13:55:48;;;;;;;;;;;25.20;60.40;;;;;;5024688;28;20364;-56
2023/08/16 13:58:14;;;;;;;;;;;25.20;60.50;;;;;;5021084;28;20297;-55
2023/08/16 14:00:40;;;;;;;;;;;25.10;60.50;;;;;;5032310;28;19913;-56
2023/08/16 14:03:05;;;;;;;;;;;25.10;60.50;;;;;;5033335;28;20420;-57
2023/08/16 14:05:31;;;;;;;;;;;25.10;60.80;;;;;;5030158;28;20414;-57
2023/08/16 14:07:56;;;;;;;;;;;25.00;61.30;;;;;;5028860;28;19970;-57